Terminal Aerodrome Forecast
Issued by NWS Brownsville, TX

Home | Current Version | Previous Version | Text Only | Print | Product List | Glossary On
Versions: 1 2 3 4 5 6 7 8 9 10 11 12 13 14 15 16 17 18 19 20 21 22 23
970
FTUS44 KBRO 311120
TAFBRO
TAF
KBRO 311120Z 3112/0112 VRB04KT P6SM SCT025 SCT250
      TEMPO 3112/3114 BKN025
     FM311500 14013G19KT P6SM BKN030
      TEMPO 3118/3120 3SM -TSRA BKN020CB
     FM312000 15015G22KT P6SM BKN040=

USA.gov is the U.S. government's official web portal to all federal, state and local government web resources and services.